Time;durP1;ratioP1;P1;durP2;ratioP2;P2;SDS_P1;SDS_P2;PMS_P1;PMS_P2;Temp;Humidity;BMP_temperature;BMP_pressure;BME280_temperature;BME280_humidity;BME280_pressure;Samples;Min_cycle;Max_cycle;Signal;HPM_P1;HPM_P2
2020/12/06 00:01:26;;;;;;;11.12;6.65;;;;;;;0.01;60.37;102213.63;1768960;80;21500;-61
2020/12/06 00:03:54;;;;;;;14.03;7.37;;;;;;;-0.04;60.51;102213.20;1744449;80;21210;-61
2020/12/06 00:06:21;;;;;;;19.27;6.60;;;;;;;-0.08;60.59;102216.69;1767121;80;22074;-62
2020/12/06 00:08:52;;;;;;;11.75;7.03;;;;;;;-0.05;60.59;102209.33;1781553;79;21643;-61
2020/12/06 00:11:20;;;;;;;15.23;6.95;;;;;;;-0.02;60.44;102214.48;1789829;79;21605;-61
2020/12/06 00:13:47;;;;;;;12.30;6.37;;;;;;;-0.02;60.17;102218.38;1779318;79;21175;-61
2020/12/06 00:16:16;;;;;;;11.65;6.50;;;;;;;-0.05;60.14;102219.67;1745814;80;21173;-61
2020/12/06 00:18:45;;;;;;;12.03;6.33;;;;;;;-0.09;59.95;102224.02;1780857;79;21191;-61
2020/12/06 00:21:17;;;;;;;11.78;6.22;;;;;;;-0.11;59.84;102230.09;1788851;79;21446;-61
2020/12/06 00:23:45;;;;;;;14.23;6.00;;;;;;;-0.12;59.89;102228.36;1768888;80;21164;-61
2020/12/06 00:26:24;;;;;;;12.43;6.10;;;;;;;-0.13;59.77;102226.66;1760100;80;21208;-61
2020/12/06 00:28:52;;;;;;;15.60;6.90;;;;;;;-0.12;59.77;102228.36;1769725;80;21227;-60
2020/12/06 00:31:19;;;;;;;10.98;6.10;;;;;;;-0.14;59.60;102226.22;1743591;80;21696;-61
2020/12/06 00:33:47;;;;;;;13.32;5.60;;;;;;;-0.21;59.41;102223.66;1780718;79;21157;-62
2020/12/06 00:36:15;;;;;;;11.63;5.75;;;;;;;-0.25;59.57;102221.97;1768805;80;21180;-62
2020/12/06 00:38:44;;;;;;;18.30;5.95;;;;;;;-0.22;59.42;102219.78;1757045;80;22430;-62
2020/12/06 00:41:14;;;;;;;10.95;5.78;;;;;;;-0.25;59.26;102224.55;1767539;80;21621;-62
2020/12/06 00:43:42;;;;;;;11.00;5.75;;;;;;;-0.25;59.16;102221.97;1770475;80;22301;-62
2020/12/06 00:46:11;;;;;;;13.10;6.00;;;;;;;-0.25;59.25;102224.55;1803213;79;21754;-62
2020/12/06 00:48:38;;;;;;;10.75;5.53;;;;;;;-0.29;59.12;102225.86;1775290;79;21195;-62
2020/12/06 00:51:06;;;;;;;13.72;7.05;;;;;;;-0.33;59.06;102225.03;1771329;80;21147;-62
2020/12/06 00:53:35;;;;;;;13.40;6.78;;;;;;;-0.35;59.19;102229.36;1760559;79;21634;-63
2020/12/06 00:56:06;;;;;;;11.55;6.37;;;;;;;-0.33;58.97;102225.03;1769864;80;21140;-62
2020/12/06 00:58:34;;;;;;;10.28;5.17;;;;;;;-0.34;59.02;102230.20;1801349;79;21226;-62
2020/12/06 01:01:01;;;;;;;12.85;5.67;;;;;;;-0.38;59.07;102229.36;1803095;79;21247;-63
2020/12/06 01:03:29;;;;;;;13.45;7.45;;;;;;;-0.40;58.83;102224.20;1771950;80;22069;-62
2020/12/06 01:05:57;;;;;;;13.70;6.62;;;;;;;-0.44;58.75;102221.21;1800923;79;21583;-62
2020/12/06 01:08:25;;;;;;;10.72;5.60;;;;;;;-0.46;58.63;102228.09;1803042;79;21907;-62
2020/12/06 01:10:54;;;;;;;13.80;7.33;;;;;;;-0.48;58.63;102223.81;1775891;79;21221;-62
2020/12/06 01:13:21;;;;;;;12.37;5.33;;;;;;;-0.50;58.57;102222.97;1770475;80;22345;-63
2020/12/06 01:15:50;;;;;;;12.93;6.40;;;;;;;-0.50;58.55;102220.38;1802257;79;21453;-63
2020/12/06 01:18:18;;;;;;;12.07;6.37;;;;;;;-0.55;58.39;102226.86;1776419;79;21176;-62
2020/12/06 01:20:46;;;;;;;10.68;5.37;;;;;;;-0.57;58.48;102217.81;1769820;80;22204;-62
2020/12/06 01:23:13;;;;;;;10.20;5.62;;;;;;;-0.61;58.37;102223.84;1802693;79;21199;-62
2020/12/06 01:25:40;;;;;;;12.18;5.78;;;;;;;-0.65;58.42;102223.44;1768935;80;21587;-62
2020/12/06 01:28:08;;;;;;;8.98;4.70;;;;;;;-0.66;58.56;102228.17;1764641;79;21683;-62
2020/12/06 01:30:35;;;;;;;12.33;4.95;;;;;;;-0.68;58.47;102228.62;1769706;80;21246;-62
2020/12/06 01:33:04;;;;;;;10.32;5.87;;;;;;;-0.70;58.40;102229.06;1796887;79;21394;-62
2020/12/06 01:35:32;;;;;;;19.42;6.62;;;;;;;-0.72;58.46;102226.92;1802054;79;21824;-62
2020/12/06 01:38:00;;;;;;;11.85;6.45;;;;;;;-0.72;58.44;102232.09;1770704;80;21634;-62
2020/12/06 01:40:28;;;;;;;12.45;5.37;;;;;;;-0.74;58.40;102233.80;1764707;79;22001;-61
2020/12/06 01:42:55;;;;;;;12.63;6.42;;;;;;;-0.75;58.40;102240.70;1769634;79;21179;-62
2020/12/06 01:45:25;;;;;;;9.95;4.87;;;;;;;-0.75;58.17;102234.24;1778839;79;22143;-61
2020/12/06 01:47:53;;;;;;;10.48;5.03;;;;;;;-0.75;58.14;102239.41;1780624;79;21190;-61
2020/12/06 01:50:20;;;;;;;11.88;5.12;;;;;;;-0.75;58.06;102232.10;1779301;79;21643;-61
2020/12/06 01:52:47;;;;;;;12.85;4.95;;;;;;;-0.79;57.90;102226.49;1802230;78;21168;-61
2020/12/06 01:55:15;;;;;;;11.20;5.45;;;;;;;-0.84;57.95;102235.58;1806301;78;21176;-61
2020/12/06 01:57:42;;;;;;;11.22;4.60;;;;;;;-0.89;58.02;102235.14;1775142;80;21215;-62
2020/12/06 02:00:10;;;;;;;11.12;5.92;;;;;;;-0.93;57.93;102239.46;1805425;77;21219;-61
2020/12/06 02:02:38;;;;;;;12.60;5.40;;;;;;;-0.95;57.95;102236.87;1799843;78;21183;-61
2020/12/06 02:05:06;;;;;;;11.00;4.60;;;;;;;-1.00;57.97;102228.28;1766324;78;21119;-61
2020/12/06 02:07:33;;;;;;;9.78;4.47;;;;;;;-1.02;58.05;102236.48;1800773;78;22335;-61
2020/12/06 02:10:01;;;;;;;11.28;4.62;;;;;;;-1.00;57.83;102233.45;1775403;78;22065;-61
2020/12/06 02:12:29;;;;;;;12.45;5.17;;;;;;;-1.03;57.79;102234.74;1766412;78;21214;-61
2020/12/06 02:14:56;;;;;;;11.22;5.42;;;;;;;-1.05;57.75;102237.77;1767151;78;21194;-61
2020/12/06 02:17:26;;;;;;;10.25;4.37;;;;;;;-1.09;57.77;102240.35;1800800;78;21175;-61
2020/12/06 02:19:54;;;;;;;13.20;5.85;;;;;;;-1.14;57.74;102241.23;1783028;78;21167;-61
2020/12/06 02:22:22;;;;;;;15.80;4.50;;;;;;;-1.17;57.63;102237.80;1775913;78;21466;-61
2020/12/06 02:24:50;;;;;;;11.57;4.47;;;;;;;-1.21;57.62;102242.52;1805012;78;21171;-61
2020/12/06 02:27:17;;;;;;;11.08;5.33;;;;;;;-1.22;57.65;102248.57;1801481;78;21618;-61
2020/12/06 02:29:44;;;;;;;8.73;4.37;;;;;;;-1.25;57.53;102246.84;1765907;78;22071;-61
2020/12/06 02:32:12;;;;;;;12.10;4.80;;;;;;;-1.24;57.53;102251.59;1775135;78;21201;-62
2020/12/06 02:34:41;;;;;;;11.15;4.78;;;;;;;-1.26;57.42;102252.88;1804810;77;21383;-61
2020/12/06 02:37:14;;;;;;;10.25;4.00;;;;;;;-1.32;57.50;102249.86;1776630;78;21543;-61
2020/12/06 02:39:43;;;;;;;11.43;5.47;;;;;;;-1.32;57.54;102254.17;1803966;77;21164;-61
2020/12/06 02:42:10;;;;;;;10.35;4.83;;;;;;;-1.34;57.57;102259.33;1800433;78;21247;-61
2020/12/06 02:44:38;;;;;;;14.50;5.40;;;;;;;-1.33;57.39;102252.03;1767698;78;21175;-61
2020/12/06 02:47:05;;;;;;;8.85;4.50;;;;;;;-1.41;57.29;102251.17;1805032;78;22083;-61
2020/12/06 02:49:33;;;;;;;8.65;4.35;;;;;;;-1.44;57.28;102254.19;1808014;77;21175;-61
2020/12/06 02:52:00;;;;;;;10.80;5.72;;;;;;;-1.47;57.32;102256.77;1808326;77;21757;-60
2020/12/06 02:54:28;;;;;;;10.30;4.67;;;;;;;-1.46;57.32;102253.30;1777240;78;22005;-60
2020/12/06 02:56:56;;;;;;;10.00;4.55;;;;;;;-1.50;57.21;102257.61;1807389;77;21510;-60
2020/12/06 02:59:23;;;;;;;10.00;4.95;;;;;;;-1.54;57.26;102255.45;1803937;78;21402;-60
2020/12/06 03:01:51;;;;;;;12.78;4.87;;;;;;;-1.56;57.19;102253.75;1767716;80;21985;-61
2020/12/06 03:04:20;;;;;;;9.70;4.50;;;;;;;-1.61;57.25;102252.89;1783381;79;21253;-61
2020/12/06 03:06:48;;;;;;;8.95;4.40;;;;;;;-1.66;57.23;102263.61;1788606;79;21643;-61
2020/12/06 03:09:15;;;;;;;11.48;4.47;;;;;;;-1.70;57.25;102257.59;1809923;78;21154;-61
2020/12/06 03:11:42;;;;;;;8.00;4.03;;;;;;;-1.67;57.28;102264.48;1780735;78;23618;-61
2020/12/06 03:14:11;;;;;;;11.50;4.80;;;;;;;-1.65;57.15;102265.34;1808023;78;21645;-61
2020/12/06 03:16:40;;;;;;;9.48;4.00;;;;;;;-1.68;57.14;102264.93;1807772;78;21485;-61
2020/12/06 03:19:08;;;;;;;11.03;4.42;;;;;;;-1.69;57.14;102269.65;1769897;78;21186;-61
2020/12/06 03:21:35;;;;;;;10.45;4.22;;;;;;;-1.65;56.98;102270.07;1802213;78;21523;-61
2020/12/06 03:24:08;;;;;;;8.43;4.05;;;;;;;-1.68;57.07;102270.09;1807974;78;22493;-61
2020/12/06 03:26:35;;;;;;;10.60;4.78;;;;;;;-1.69;57.02;102267.92;1808035;78;21163;-61
2020/12/06 03:29:03;;;;;;;10.78;5.08;;;;;;;-1.66;56.93;102264.91;1804181;78;21211;-61
2020/12/06 03:31:30;;;;;;;9.20;4.33;;;;;;;-1.70;56.92;102272.67;1770691;79;21167;-61
2020/12/06 03:33:57;;;;;;;9.35;4.50;;;;;;;-1.73;56.86;102277.82;1804908;78;21175;-61
2020/12/06 03:36:25;;;;;;;9.68;4.25;;;;;;;-1.78;56.89;102279.53;1805807;78;21531;-61
2020/12/06 03:38:54;;;;;;;7.75;4.33;;;;;;;-1.81;56.87;102284.69;1805757;78;21188;-61
2020/12/06 03:41:22;;;;;;;8.80;3.67;;;;;;;-1.85;56.78;102287.25;1767641;78;21182;-61
2020/12/06 03:43:49;;;;;;;11.08;4.83;;;;;;;-1.92;56.76;102287.22;1804672;78;21143;-61
2020/12/06 03:46:16;;;;;;;16.10;4.45;;;;;;;-1.93;56.81;102286.81;1780827;78;21204;-61
2020/12/06 03:48:44;;;;;;;9.15;4.00;;;;;;;-1.94;56.63;102288.95;1803140;78;22101;-61
2020/12/06 03:51:13;;;;;;;7.22;3.65;;;;;;;-1.95;56.78;102288.53;1765017;78;21227;-61
2020/12/06 03:53:40;;;;;;;8.30;4.40;;;;;;;-1.93;56.74;102288.55;1801684;78;21498;-60
2020/12/06 03:56:08;;;;;;;8.65;3.98;;;;;;;-1.94;56.56;102285.08;1764955;80;21184;-61
2020/12/06 03:58:36;;;;;;;9.93;3.62;;;;;;;-1.95;56.64;102294.10;1800307;78;21658;-60
2020/12/06 04:01:03;;;;;;;9.35;4.17;;;;;;;-1.99;56.72;102288.08;1803841;77;21980;-60
2020/12/06 04:03:31;;;;;;;7.70;3.72;;;;;;;-2.00;56.75;102286.38;1797922;79;21203;-61
2020/12/06 04:05:58;;;;;;;12.58;4.47;;;;;;;-2.04;56.76;102289.78;1793927;77;21658;-61
2020/12/06 04:08:26;;;;;;;9.20;3.87;;;;;;;-2.04;56.75;102289.78;1798443;77;21179;-61
2020/12/06 04:10:54;;;;;;;6.72;3.45;;;;;;;-2.07;56.72;102293.23;1796717;77;21829;-61
2020/12/06 04:13:23;;;;;;;7.83;3.80;;;;;;;-2.08;56.82;102291.94;1778345;79;21226;-61
2020/12/06 04:15:52;;;;;;;7.62;4.00;;;;;;;-2.09;56.81;102302.66;1779704;78;21189;-61
2020/12/06 04:18:19;;;;;;;12.47;4.17;;;;;;;-2.10;56.74;102295.80;1805798;78;21183;-61
2020/12/06 04:20:47;;;;;;;14.33;3.87;;;;;;;-2.07;56.59;102309.11;1805502;78;21147;-58
2020/12/06 04:23:15;;;;;;;9.20;4.08;;;;;;;-2.10;56.51;102303.94;1800330;78;21562;-60
2020/12/06 04:25:42;;;;;;;14.30;4.25;;;;;;;-2.12;56.48;102304.37;1765965;79;22074;-63
2020/12/06 04:28:10;;;;;;;17.35;4.12;;;;;;;-2.14;56.42;102300.50;1799038;78;21204;-61
2020/12/06 04:30:39;;;;;;;10.72;4.25;;;;;;;-2.13;56.46;102307.39;1765090;78;21183;-62
2020/12/06 04:33:06;;;;;;;9.20;3.92;;;;;;;-2.16;56.50;102304.80;1800945;78;21632;-60
2020/12/06 04:35:34;;;;;;;8.13;4.08;;;;;;;-2.16;56.63;102310.39;1765059;80;21168;-59
2020/12/06 04:38:02;;;;;;;6.85;3.08;;;;;;;-2.13;56.57;102312.98;1800594;77;21395;-62
2020/12/06 04:40:30;;;;;;;11.93;4.72;;;;;;;-2.12;56.55;102312.11;1764142;78;21222;-60
2020/12/06 04:42:58;;;;;;;7.90;3.27;;;;;;;-2.14;56.48;102319.84;1799900;78;21631;-60
2020/12/06 04:45:26;;;;;;;7.58;3.72;;;;;;;-2.16;56.47;102312.97;1766147;78;21179;-60
2020/12/06 04:48:05;;;;;;;15.50;3.90;;;;;;;-2.17;56.53;102313.81;1801980;78;22428;-60
2020/12/06 04:50:38;;;;;;;10.78;4.08;;;;;;;-2.17;56.55;102313.81;1807982;77;21382;-61
2020/12/06 04:53:05;;;;;;;8.85;3.52;;;;;;;-2.17;56.49;102309.94;1778079;78;21200;-60
2020/12/06 04:55:35;;;;;;;7.58;3.37;;;;;;;-2.18;56.35;102313.39;1805502;77;21199;-61
2020/12/06 04:58:04;;;;;;;7.20;3.75;;;;;;;-2.19;56.29;102312.52;1772885;80;22743;-60
2020/12/06 05:00:36;;;;;;;9.68;4.97;;;;;;;-2.20;56.25;102313.39;1770574;78;22303;-60
2020/12/06 05:03:09;;;;;;;7.17;3.90;;;;;;;-2.20;56.25;102312.09;1768853;78;21190;-61
2020/12/06 05:05:40;;;;;;;8.20;4.25;;;;;;;-2.21;56.04;102314.23;1806862;77;21626;-61
2020/12/06 05:08:12;;;;;;;10.65;4.33;;;;;;;-2.22;56.07;102315.08;1769092;79;21552;-60
2020/12/06 05:10:46;;;;;;;11.22;4.05;;;;;;;-2.23;56.09;102314.66;1805152;78;21183;-61
2020/12/06 05:13:12;;;;;;;8.85;3.45;;;;;;;-2.25;55.99;102308.64;1768745;78;21634;-61
2020/12/06 05:15:43;;;;;;;7.58;3.50;;;;;;;-2.27;55.93;102315.08;1804409;78;21222;-62
2020/12/06 05:18:13;;;;;;;7.25;4.15;;;;;;;-2.32;56.16;102319.36;1767932;80;21199;-62
2020/12/06 05:20:41;;;;;;;10.15;4.28;;;;;;;-2.30;56.23;102321.51;1803895;78;21048;-62
2020/12/06 05:23:08;;;;;;;9.20;3.65;;;;;;;-2.28;56.25;102315.92;1766785;78;22545;-61
2020/12/06 05:25:36;;;;;;;7.62;3.92;;;;;;;-2.28;56.17;102323.66;1775466;78;21650;-61
2020/12/06 05:28:07;;;;;;;10.10;4.10;;;;;;;-2.28;56.15;102326.67;1753184;80;21696;-61
2020/12/06 05:30:40;;;;;;;11.85;4.20;;;;;;;-2.28;56.11;102324.09;1778575;78;21752;-61
2020/12/06 05:33:10;;;;;;;6.92;3.67;;;;;;;-2.28;56.21;102324.95;1775331;78;21748;-61
2020/12/06 05:35:43;;;;;;;9.33;3.98;;;;;;;-2.27;56.08;102325.80;1774503;78;21231;-62
2020/12/06 05:38:12;;;;;;;13.70;4.42;;;;;;;-2.30;55.91;102325.81;1768791;79;21255;-62
2020/12/06 05:40:45;;;;;;;11.28;3.87;;;;;;;-2.34;55.96;102328.78;1772458;78;22384;-60
2020/12/06 05:43:13;;;;;;;7.75;3.77;;;;;;;-2.34;55.97;102327.92;1806050;78;21130;-63
2020/12/06 05:45:40;;;;;;;8.85;3.72;;;;;;;-2.33;56.01;102329.66;1766859;79;21175;-63
2020/12/06 05:48:07;;;;;;;9.20;4.25;;;;;;;-2.36;55.96;102329.64;1799979;78;21193;-64
2020/12/06 05:50:35;;;;;;;20.32;3.98;;;;;;;-2.38;55.93;102330.92;1804511;78;21115;-62
2020/12/06 05:53:03;;;;;;;10.08;4.75;;;;;;;-2.39;55.82;102334.34;1772047;78;21331;-63
2020/12/06 05:55:32;;;;;;;8.00;3.70;;;;;;;-2.44;55.77;102338.20;1767177;78;21155;-64
2020/12/06 05:58:00;;;;;;;9.08;4.20;;;;;;;-2.46;55.80;102337.31;1769675;78;21195;-63
2020/12/06 06:00:30;;;;;;;9.95;4.95;;;;;;;-2.45;55.76;102337.76;1749569;78;21183;-64
2020/12/06 06:02:58;;;;;;;8.45;3.62;;;;;;;-2.44;55.69;102350.21;1804858;78;21175;-65
2020/12/06 06:05:27;;;;;;;9.58;4.60;;;;;;;-2.46;55.74;102345.05;1732236;78;22186;-63
2020/12/06 06:07:56;;;;;;;11.28;3.75;;;;;;;-2.46;55.81;102346.33;1767105;80;21258;-64
2020/12/06 06:10:24;;;;;;;9.23;4.40;;;;;;;-2.47;55.55;102350.19;1772620;80;21246;-63
2020/12/06 06:12:52;;;;;;;9.98;4.55;;;;;;;-2.47;55.62;102354.06;1798068;78;21258;-64
2020/12/06 06:15:22;;;;;;;12.18;3.20;;;;;;;-2.44;55.54;102356.25;1742443;78;21204;-64
2020/12/06 06:17:50;;;;;;;8.25;4.25;;;;;;;-2.44;55.47;102356.25;1801456;77;21211;-64
2020/12/06 06:20:18;;;;;;;9.05;3.70;;;;;;;-2.46;55.45;102354.07;1764953;80;21196;-64
2020/12/06 06:22:47;;;;;;;7.30;4.33;;;;;;;-2.38;55.57;102362.30;1749280;80;21793;-65
2020/12/06 06:25:17;;;;;;;9.78;4.37;;;;;;;-2.37;55.40;102356.27;1802594;78;21211;-63
2020/12/06 06:27:45;;;;;;;12.07;3.92;;;;;;;-2.35;55.26;102363.61;1804083;78;21194;-63
2020/12/06 06:30:14;;;;;;;9.05;4.47;;;;;;;-2.30;55.13;102356.32;1766672;78;21619;-64
2020/12/06 06:32:42;;;;;;;8.68;4.08;;;;;;;-2.31;55.19;102358.45;1795445;78;21179;-63
2020/12/06 06:35:11;;;;;;;8.38;3.60;;;;;;;-2.26;55.26;102358.48;1745827;80;21199;-62
2020/12/06 06:37:39;;;;;;;7.75;3.83;;;;;;;-2.19;55.12;102355.07;1770762;80;21246;-63
2020/12/06 06:40:08;;;;;;;8.33;4.45;;;;;;;-2.16;55.05;102360.69;1770262;78;21184;-62
2020/12/06 06:42:37;;;;;;;10.23;4.25;;;;;;;-2.17;55.00;102363.70;1768587;78;21371;-62
2020/12/06 06:45:09;;;;;;;8.78;4.75;;;;;;;-2.14;54.74;102361.11;1799124;77;21131;-63
2020/12/06 06:47:40;;;;;;;8.38;4.42;;;;;;;-2.15;54.82;102364.56;1792783;79;21744;-62
2020/12/06 06:50:09;;;;;;;8.23;4.30;;;;;;;-2.11;54.92;102361.13;1790344;79;21922;-61
2020/12/06 06:52:42;;;;;;;10.10;4.55;;;;;;;-2.03;55.01;102362.88;1791007;79;21617;-61
2020/12/06 06:55:10;;;;;;;10.20;4.65;;;;;;;-1.97;54.66;102365.48;1788921;79;21368;-61
2020/12/06 06:57:41;;;;;;;8.55;3.83;;;;;;;-1.94;54.46;102356.47;1722229;81;22502;-61
2020/12/06 07:00:08;;;;;;;11.50;4.42;;;;;;;-1.92;54.53;102361.20;1725304;81;21238;-62
2020/12/06 07:02:41;;;;;;;10.03;4.75;;;;;;;-1.88;54.48;102358.64;1791407;79;21164;-62
2020/12/06 07:05:20;;;;;;;10.20;4.25;;;;;;;-1.83;54.39;102361.25;1790129;79;21225;-61
2020/12/06 07:07:51;;;;;;;9.63;4.37;;;;;;;-1.78;54.17;102360.84;1791315;79;21196;-62
2020/12/06 07:10:23;;;;;;;10.55;4.80;;;;;;;-1.73;53.99;102355.66;1720744;81;21227;-62
2020/12/06 07:12:55;;;;;;;11.25;4.70;;;;;;;-1.73;53.88;102354.37;1725399;81;21198;-62
2020/12/06 07:15:25;;;;;;;13.83;5.50;;;;;;;-1.72;53.91;102353.09;1756732;80;21198;-62
2020/12/06 07:17:54;;;;;;;9.35;4.00;;;;;;;-1.69;54.10;102361.28;1755687;80;22715;-61
2020/12/06 07:20:23;;;;;;;17.82;4.67;;;;;;;-1.69;53.64;102357.41;1720310;81;21254;-62
2020/12/06 07:22:52;;;;;;;11.25;4.35;;;;;;;-1.70;53.60;102352.69;1758418;80;21195;-61
2020/12/06 07:25:20;;;;;;;10.58;4.00;;;;;;;-1.67;53.68;102358.70;1720186;80;21328;-62
2020/12/06 07:27:48;;;;;;;8.38;3.83;;;;;;;-1.66;53.76;102357.83;1755893;81;21649;-60
2020/12/06 07:30:20;;;;;;;8.18;3.60;;;;;;;-1.63;53.77;102357.84;1756552;80;21147;-61
2020/12/06 07:32:50;;;;;;;8.80;4.03;;;;;;;-1.57;53.67;102360.45;1721351;80;21378;-61
2020/12/06 07:35:23;;;;;;;12.25;4.65;;;;;;;-1.53;53.53;102363.45;1755186;79;21199;-62
2020/12/06 07:37:56;;;;;;;12.50;4.75;;;;;;;-1.51;53.60;102358.74;1756178;80;21163;-61
2020/12/06 07:40:24;;;;;;;7.10;3.22;;;;;;;-1.45;53.40;102377.25;1758046;79;21673;-62
2020/12/06 07:42:51;;;;;;;7.20;3.33;;;;;;;-1.44;53.15;102379.42;1719455;80;21421;-62
2020/12/06 07:45:23;;;;;;;8.18;4.15;;;;;;;-1.45;53.00;102381.12;1757703;79;22283;-62
2020/12/06 07:47:53;;;;;;;12.15;4.40;;;;;;;-1.43;53.04;102385.00;1725279;80;21611;-62
2020/12/06 07:50:21;;;;;;;7.87;3.77;;;;;;;-1.42;53.04;102382.42;1778056;79;21186;-61
2020/12/06 07:52:49;;;;;;;7.12;3.60;;;;;;;-1.40;52.82;102374.23;1763670;80;21172;-63
2020/12/06 07:55:17;;;;;;;8.68;3.60;;;;;;;-1.34;52.82;102383.30;1744423;80;21166;-62
2020/12/06 07:57:52;;;;;;;8.80;3.70;;;;;;;-1.28;52.82;102381.14;1766096;79;21378;-62
2020/12/06 08:00:23;;;;;;;9.47;4.27;;;;;;;-1.24;52.61;102381.59;1748865;80;21484;-62
2020/12/06 08:02:58;;;;;;;8.23;3.87;;;;;;;-1.20;52.62;102379.88;1778652;79;22949;-62
2020/12/06 08:05:31;;;;;;;11.73;4.58;;;;;;;-1.10;52.48;102377.73;1766379;80;21190;-61
2020/12/06 08:08:07;;;;;;;11.90;3.90;;;;;;;-1.05;52.32;102377.30;1753670;80;21174;-62
2020/12/06 08:10:35;;;;;;;9.33;3.47;;;;;;;-1.03;52.26;102380.73;1764242;80;22642;-63
2020/12/06 08:13:02;;;;;;;8.75;3.75;;;;;;;-0.97;52.13;102372.14;1745339;80;21202;-61
2020/12/06 08:15:30;;;;;;;7.70;3.52;;;;;;;-0.88;52.19;102375.15;1777448;79;22011;-62
2020/12/06 08:17:58;;;;;;;12.07;4.72;;;;;;;-0.83;52.10;102373.42;1762407;80;21191;-63
2020/12/06 08:20:26;;;;;;;9.78;4.47;;;;;;;-0.77;51.88;102369.11;1741059;80;21638;-62
2020/12/06 08:22:59;;;;;;;8.75;3.72;;;;;;;-0.72;51.54;102375.58;1764931;80;21733;-63
2020/12/06 08:25:50;;;;;;;8.63;4.40;;;;;;;-0.69;51.31;102370.41;1777523;80;21043;-63
2020/12/06 08:28:38;;;;;;;13.03;4.80;;;;;;;-0.65;51.52;102374.70;1710630;82;22401;-63
2020/12/06 08:31:23;;;;;;;9.53;4.35;;;;;;;-0.59;51.48;102372.52;1726578;80;21235;-63
2020/12/06 08:33:51;;;;;;;7.90;3.47;;;;;;;-0.61;51.07;102368.64;1692019;82;21761;-63
2020/12/06 08:36:25;;;;;;;9.28;3.62;;;;;;;-0.63;51.05;102375.55;1716556;81;23618;-63
2020/12/06 08:38:53;;;;;;;7.22;3.37;;;;;;;-0.61;50.77;102380.28;1722763;81;21283;-65
2020/12/06 08:41:24;;;;;;;7.58;3.70;;;;;;;-0.60;50.70;102380.72;1718866;81;21260;-65
2020/12/06 08:44:03;;;;;;;10.60;4.03;;;;;;;-0.61;50.79;102373.81;1722213;80;21734;-63
2020/12/06 08:46:31;;;;;;;9.70;4.60;;;;;;;-0.57;51.12;102377.28;1720772;81;21249;-63
2020/12/06 08:49:00;;;;;;;7.53;3.87;;;;;;;-0.51;50.68;102366.05;1717437;81;21295;-63
2020/12/06 08:51:39;;;;;;;10.10;4.33;;;;;;;-0.49;50.50;102366.46;1721560;80;21217;-63
2020/12/06 08:54:08;;;;;;;9.53;3.95;;;;;;;-0.46;50.67;102352.68;1723602;81;21199;-63
2020/12/06 08:56:41;;;;;;;8.75;4.70;;;;;;;-0.41;50.64;102357.41;1720075;81;21341;-63
2020/12/06 09:01:20;;;;;;;6.60;3.17;;;;;;;-0.31;50.81;102355.22;1798216;78;24173;-63
2020/12/06 09:03:48;;;;;;;10.13;4.00;;;;;;;-0.36;50.52;102352.23;1769007;80;21175;-62
2020/12/06 09:06:17;;;;;;;9.85;4.75;;;;;;;-0.35;50.47;102356.11;1732503;81;23620;-62
2020/12/06 09:08:44;;;;;;;6.42;3.90;;;;;;;-0.32;50.43;102356.10;1733440;81;21228;-62
2020/12/06 09:11:18;;;;;;;10.00;4.20;;;;;;;-0.27;50.31;102351.77;1732584;80;21557;-62
2020/12/06 09:13:46;;;;;;;6.60;3.55;;;;;;;-0.22;50.16;102357.79;1708014;81;21216;-62
2020/12/06 09:16:14;;;;;;;11.05;4.58;;;;;;;-0.16;50.05;102363.81;1699809;83;21219;-60
2020/12/06 09:18:42;;;;;;;8.55;3.60;;;;;;;-0.15;49.65;102357.34;1720890;81;21361;-60
2020/12/06 09:21:09;;;;;;;9.10;4.37;;;;;;;-0.12;49.77;102354.71;1738194;81;21269;-60
2020/12/06 09:23:38;;;;;;;8.20;3.98;;;;;;;-0.06;49.95;102359.02;1736895;81;21208;-62
2020/12/06 09:26:07;;;;;;;9.33;3.72;;;;;;;-0.02;50.16;102356.42;1710763;81;21493;-64
2020/12/06 09:28:35;;;;;;;8.45;4.53;;;;;;;0.06;49.72;102354.23;1703101;81;21255;-60
2020/12/06 09:31:02;;;;;;;9.15;4.17;;;;;;;0.13;49.60;102350.73;1704064;81;22158;-61
2020/12/06 09:33:30;;;;;;;9.73;4.72;;;;;;;0.14;49.35;102352.02;1701950;81;21547;-59
2020/12/06 09:35:59;;;;;;;9.15;4.12;;;;;;;0.15;49.50;102355.05;1702681;83;22333;-62
2020/12/06 09:38:28;;;;;;;11.03;4.90;;;;;;;0.16;49.70;102351.57;1700199;82;21213;-62
2020/12/06 09:40:56;;;;;;;11.63;4.42;;;;;;;0.23;49.78;102351.11;1699439;82;21664;-62
2020/12/06 09:43:24;;;;;;;12.63;4.75;;;;;;;0.30;49.76;102353.23;1701952;81;21385;-61
2020/12/06 09:45:52;;;;;;;9.45;3.60;;;;;;;0.36;49.18;102348.02;1717212;82;21564;-60
2020/12/06 09:48:19;;;;;;;8.63;3.85;;;;;;;0.40;49.17;102347.12;1702252;81;21258;-60
2020/12/06 09:50:48;;;;;;;9.10;4.87;;;;;;;0.43;49.26;102347.11;1736170;81;21847;-60
2020/12/06 09:53:15;;;;;;;8.05;4.25;;;;;;;0.48;49.11;102338.87;1701253;81;21624;-60
2020/12/06 09:55:43;;;;;;;9.95;3.42;;;;;;;0.53;49.04;102345.33;1699821;81;21418;-63
2020/12/06 09:58:11;;;;;;;7.37;3.77;;;;;;;0.57;49.12;102337.95;1703805;81;21203;-65
2020/12/06 10:00:39;;;;;;;9.18;4.45;;;;;;;0.61;49.33;102333.62;1699106;82;21049;-62
2020/12/06 10:03:07;;;;;;;10.03;4.58;;;;;;;0.65;48.85;102332.72;1765581;80;21310;-61
2020/12/06 10:05:35;;;;;;;10.38;4.40;;;;;;;0.64;48.80;102320.63;1765819;80;21195;-62
2020/12/06 10:08:03;;;;;;;7.78;4.72;;;;;;;0.62;49.09;102323.67;1765834;80;21253;-61
2020/12/06 10:10:30;;;;;;;10.80;4.25;;;;;;;0.67;49.08;102317.60;1767450;80;21176;-60
2020/12/06 10:12:58;;;;;;;18.00;4.47;;;;;;;0.70;48.75;102314.11;1763283;80;21476;-59
2020/12/06 10:15:26;;;;;;;11.68;4.60;;;;;;;0.74;48.98;102313.23;1764088;80;21492;-59
2020/12/06 10:17:53;;;;;;;7.50;4.12;;;;;;;0.79;48.72;102316.64;1723319;82;21059;-58
2020/12/06 10:20:21;;;;;;;11.55;4.55;;;;;;;0.77;48.71;102314.48;1763494;79;21570;-62
2020/12/06 10:22:49;;;;;;;11.05;4.58;;;;;;;0.75;48.64;102312.34;1727126;82;21450;-64
2020/12/06 10:25:19;;;;;;;8.85;4.15;;;;;;;0.72;48.88;102311.95;1763854;80;21243;-62
2020/12/06 10:27:47;;;;;;;8.60;3.65;;;;;;;0.74;49.07;102311.94;1767908;80;21121;-58
2020/12/06 10:30:15;;;;;;;7.75;3.77;;;;;;;0.72;49.01;102305.47;1764369;80;21176;-61
2020/12/06 10:32:43;;;;;;;11.97;4.72;;;;;;;0.76;48.96;102311.48;1764454;80;21199;-64
2020/12/06 10:35:13;;;;;;;9.55;4.72;;;;;;;0.75;49.00;102304.56;1766867;80;21578;-61
2020/12/06 10:40:21;;;;;;;8.13;3.87;;;;;;;0.81;48.82;102301.05;1764981;80;21678;-61
2020/12/06 10:42:49;;;;;;;11.18;4.72;;;;;;;0.83;49.22;102298.89;1722718;82;22334;-60
2020/12/06 10:45:17;;;;;;;8.38;4.35;;;;;;;0.88;49.89;102299.70;1723648;82;21443;-61
2020/12/06 10:47:45;;;;;;;11.38;4.22;;;;;;;0.93;50.03;102305.70;1726494;82;21232;-60
2020/12/06 10:50:12;;;;;;;10.10;4.60;;;;;;;0.97;49.22;102297.91;1763530;80;21204;-61
2020/12/06 10:52:40;;;;;;;8.75;3.65;;;;;;;0.96;49.53;102300.94;1765370;80;21243;-60
2020/12/06 10:55:09;;;;;;;10.05;4.40;;;;;;;0.96;49.50;102297.47;1763812;80;21196;-61
2020/12/06 10:57:37;;;;;;;8.10;3.65;;;;;;;0.96;49.30;102292.28;1763288;80;21405;-61
2020/12/06 11:00:05;;;;;;;5.55;2.83;;;;;;;0.96;48.92;102293.58;1763528;80;21207;-61
2020/12/06 11:02:33;;;;;;;9.35;4.37;;;;;;;0.95;48.98;102287.99;1757276;80;21583;-61
2020/12/06 11:05:02;;;;;;;10.40;3.37;;;;;;;0.92;48.69;102281.97;1758508;80;21202;-61
2020/12/06 11:07:30;;;;;;;10.13;4.10;;;;;;;0.95;48.82;102282.81;1719751;82;21121;-62
2020/12/06 11:10:00;;;;;;;9.98;4.85;;;;;;;0.96;48.84;102280.63;1689584;82;23005;-63
2020/12/06 11:12:27;;;;;;;9.93;4.10;;;;;;;0.96;48.62;102280.20;1755291;80;20959;-62
2020/12/06 11:14:56;;;;;;;10.70;5.10;;;;;;;0.93;48.22;102279.78;1756059;80;21208;-63
2020/12/06 11:17:30;;;;;;;8.28;4.12;;;;;;;0.92;48.38;102283.68;1756809;80;21270;-63
2020/12/06 11:19:55;;;;;;;10.13;4.37;;;;;;;0.92;48.19;102281.09;1756057;80;21515;-61
2020/12/06 11:22:23;;;;;;;15.65;4.22;;;;;;;0.88;48.11;102282.01;1714742;82;21411;-61
2020/12/06 11:24:50;;;;;;;12.35;4.30;;;;;;;0.90;48.03;102278.51;1755353;80;21259;-62
2020/12/06 11:27:19;;;;;;;8.18;4.55;;;;;;;0.95;48.09;102282.81;1756091;80;21488;-62
2020/12/06 11:29:47;;;;;;;9.83;3.92;;;;;;;1.03;47.80;102277.12;1718640;82;21775;-63
2020/12/06 11:32:16;;;;;;;7.22;3.37;;;;;;;1.07;47.83;102278.79;1756611;80;21804;-62
2020/12/06 11:34:45;;;;;;;9.65;3.55;;;;;;;1.10;47.73;102267.09;1756057;80;23214;-61